Time;durP1;ratioP1;P1;durP2;ratioP2;P2;SDS_P1;SDS_P2;PMS_P1;PMS_P2;Temp;Humidity;BMP_temperature;BMP_pressure;BME280_temperature;BME280_humidity;BME280_pressure;Samples;Min_cycle;Max_cycle;Signal;HPM_P1;HPM_P2
2022/04/01 00:01:58;;;;;;;3.67;3.33;;;;;;;4.93;36.69;100017.44;4979544;28;20249;-54
2022/04/01 00:04:26;;;;;;;3.97;3.53;;;;;;;4.71;36.59;100012.88;4979107;28;20770;-53
2022/04/01 00:06:52;;;;;;;6.40;3.50;;;;;;;4.68;37.64;100013.72;4981668;28;20234;-53
2022/04/01 00:09:18;;;;;;;4.80;3.73;;;;;;;4.40;37.93;100025.53;4965511;28;20262;-55
2022/04/01 00:11:45;;;;;;;4.60;3.43;;;;;;;4.67;38.61;100006.78;4978225;28;20652;-52
2022/04/01 00:14:11;;;;;;;5.90;3.73;;;;;;;4.99;37.80;100020.13;4986779;28;21031;-52
2022/04/01 00:16:37;;;;;;;4.60;4.10;;;;;;;4.82;37.98;100010.41;4987448;28;20308;-54
2022/04/01 00:19:05;;;;;;;6.27;4.40;;;;;;;4.62;37.28;100013.66;4981444;28;20244;-53
2022/04/01 00:21:32;;;;;;;5.83;3.87;;;;;;;4.48;36.54;100026.47;4983063;28;20253;-55
2022/04/01 00:23:59;;;;;;;5.57;3.43;;;;;;;4.52;37.76;100001.41;4988401;28;20708;-54
2022/04/01 00:26:26;;;;;;;3.83;3.20;;;;;;;4.45;37.67;100021.25;4985845;28;20237;-54
2022/04/01 00:28:52;;;;;;;7.03;3.73;;;;;;;4.65;37.95;100010.22;4988868;28;20241;-55
2022/04/01 00:31:18;;;;;;;6.43;3.67;;;;;;;4.54;37.97;100010.09;4986396;28;20292;-55
2022/04/01 00:33:45;;;;;;;6.87;3.70;;;;;;;4.23;38.12;100027.03;4985908;28;20241;-55
2022/04/01 00:36:11;;;;;;;5.53;3.50;;;;;;;4.37;37.59;100032.41;4985592;28;20378;-53
2022/04/01 00:38:38;;;;;;;4.70;3.83;;;;;;;4.43;37.84;100020.38;4979969;28;20245;-53
2022/04/01 00:41:05;;;;;;;4.57;3.83;;;;;;;4.41;38.69;100029.00;4982124;28;20629;-53
2022/04/01 00:43:34;;;;;;;3.60;3.30;;;;;;;4.75;38.70;100019.88;4980979;28;20230;-53
2022/04/01 00:46:00;;;;;;;4.13;3.17;;;;;;;4.39;38.11;100021.19;4985252;28;20292;-53
2022/04/01 00:48:27;;;;;;;6.10;4.23;;;;;;;4.62;38.48;100023.19;4985631;28;20249;-53
2022/04/01 00:50:55;;;;;;;6.80;3.43;;;;;;;4.35;38.32;100013.31;4985067;28;20229;-53
2022/04/01 00:53:22;;;;;;;5.93;3.27;;;;;;;4.25;39.50;100015.81;4986098;28;20700;-53
2022/04/01 00:55:50;;;;;;;4.60;3.70;;;;;;;4.19;38.15;100015.72;4983956;28;20265;-55
2022/04/01 00:58:18;;;;;;;5.00;3.60;;;;;;;3.96;39.05;100014.53;4968742;28;20239;-53
2022/04/01 01:00:46;;;;;;;4.33;3.37;;;;;;;3.97;37.94;100026.69;4966193;28;20229;-53
2022/04/01 01:03:13;;;;;;;7.50;3.37;;;;;;;3.98;37.97;100018.03;4977920;28;20265;-53
2022/04/01 01:05:39;;;;;;;4.37;3.60;;;;;;;4.04;38.29;100010.34;4977637;28;20254;-53
2022/04/01 01:08:07;;;;;;;5.07;3.10;;;;;;;4.16;39.44;100018.28;4968163;28;20262;-53
2022/04/01 01:10:35;;;;;;;3.67;2.70;;;;;;;4.29;38.55;100014.13;4985157;28;20280;-55
2022/04/01 01:13:03;;;;;;;5.20;3.43;;;;;;;4.23;38.22;100004.50;4979293;28;20232;-52
2022/04/01 01:15:31;;;;;;;4.43;3.17;;;;;;;4.48;39.16;100017.81;4983980;28;20241;-51
2022/04/01 01:17:57;;;;;;;5.37;3.80;;;;;;;4.44;38.72;100001.31;4985033;28;20238;-53
2022/04/01 01:20:24;;;;;;;5.50;3.60;;;;;;;4.18;38.31;100006.19;4984639;28;20238;-52
2022/04/01 01:22:53;;;;;;;6.17;3.23;;;;;;;4.55;39.53;100006.63;4985739;28;20253;-52
2022/04/01 01:25:20;;;;;;;3.03;2.60;;;;;;;4.38;37.90;100011.63;4977882;28;20229;-52
2022/04/01 01:27:47;;;;;;;5.63;3.93;;;;;;;4.22;37.93;99996.72;4980007;28;20324;-53
2022/04/01 01:30:13;;;;;;;3.80;3.10;;;;;;;4.02;39.47;100001.63;4984964;28;20252;-52
2022/04/01 01:32:40;;;;;;;6.53;3.30;;;;;;;3.92;38.68;100008.41;4983984;28;20280;-52
2022/04/01 01:35:08;;;;;;;6.33;2.93;;;;;;;3.93;38.41;100005.00;4983759;28;20237;-52
2022/04/01 01:37:34;;;;;;;7.77;4.23;;;;;;;3.53;39.67;100006.13;4984611;28;20694;-54
2022/04/01 01:40:00;;;;;;;4.93;3.17;;;;;;;3.55;40.25;100013.09;4985005;28;20269;-55
2022/04/01 01:42:28;;;;;;;4.47;3.70;;;;;;;3.58;40.54;100017.47;4983916;28;20532;-53
2022/04/01 01:44:56;;;;;;;3.90;3.47;;;;;;;3.62;39.14;100008.00;4983140;28;20898;-53
2022/04/01 01:47:22;;;;;;;5.07;3.57;;;;;;;3.58;39.42;100010.53;4983412;28;20317;-53
2022/04/01 01:55:13;;;;;;;5.10;3.40;;;;;;;3.99;40.66;99999.00;4976981;28;20283;-55
2022/04/01 01:57:41;;;;;;;5.63;3.60;;;;;;;3.78;38.73;100000.44;4979371;28;20307;-55
2022/04/01 02:00:11;;;;;;;5.80;3.33;;;;;;;3.72;39.31;100005.56;4983267;28;20248;-54
2022/04/01 02:02:38;;;;;;;6.00;3.87;;;;;;;3.64;40.15;100006.28;4984054;28;20226;-54
2022/04/01 02:05:06;;;;;;;7.43;3.60;;;;;;;3.72;39.19;100002.97;4984142;28;20263;-53
2022/04/01 02:07:32;;;;;;;5.03;3.13;;;;;;;3.56;39.06;100004.44;4984923;28;20235;-55
2022/04/01 02:09:59;;;;;;;3.70;3.13;;;;;;;3.90;40.39;100001.50;4984094;28;20264;-52
2022/04/01 02:12:25;;;;;;;5.90;3.80;;;;;;;3.38;39.90;100008.47;4983696;28;20244;-52
2022/04/01 02:14:53;;;;;;;6.07;3.33;;;;;;;3.41;39.86;100004.22;4982853;28;20237;-56
2022/04/01 02:17:19;;;;;;;7.10;3.43;;;;;;;3.33;40.23;99995.41;4990657;28;20224;-54
2022/04/01 02:19:46;;;;;;;5.80;3.43;;;;;;;3.72;40.61;100012.44;4990993;28;20240;-54
2022/04/01 02:22:12;;;;;;;5.40;3.67;;;;;;;3.43;40.03;100001.63;4990753;28;20318;-54
2022/04/01 02:24:39;;;;;;;6.37;3.60;;;;;;;3.24;40.40;100006.53;4993837;28;20641;-54
2022/04/01 02:27:06;;;;;;;6.93;3.70;;;;;;;3.53;39.42;100008.72;4990185;28;20240;-52
2022/04/01 02:29:32;;;;;;;4.20;3.80;;;;;;;3.70;39.93;100007.25;4990151;28;20322;-54
2022/04/01 02:32:00;;;;;;;5.90;4.00;;;;;;;3.71;40.64;100011.56;4984084;28;20307;-54
2022/04/01 02:34:27;;;;;;;4.47;3.43;;;;;;;3.60;40.25;100002.75;4983378;28;20243;-52
2022/04/01 02:36:56;;;;;;;4.47;3.93;;;;;;;3.59;40.86;100001.03;4986370;28;20896;-52
2022/04/01 02:39:22;;;;;;;5.10;3.70;;;;;;;3.44;40.78;99998.16;4989998;28;20330;-53
2022/04/01 02:41:49;;;;;;;6.37;3.87;;;;;;;3.43;41.68;100004.22;4991455;28;20237;-53
2022/04/01 02:44:15;;;;;;;4.50;3.53;;;;;;;3.47;41.80;100003.41;4990739;28;20371;-53
2022/04/01 02:46:43;;;;;;;6.50;4.07;;;;;;;3.14;40.31;99989.06;4990663;28;21520;-55
2022/04/01 02:49:13;;;;;;;4.00;3.60;;;;;;;3.17;40.92;99996.88;4990738;28;20243;-52
2022/04/01 02:51:41;;;;;;;6.10;3.57;;;;;;;3.14;40.78;100009.81;4978028;28;20252;-54
2022/04/01 02:54:08;;;;;;;6.60;3.50;;;;;;;3.12;41.51;100001.13;4987377;28;20274;-52
2022/04/01 02:56:36;;;;;;;7.10;3.90;;;;;;;3.01;40.89;100007.84;4980871;28;20252;-53
2022/04/01 02:59:06;;;;;;;7.60;3.93;;;;;;;3.13;41.64;100007.19;4988357;28;20233;-53
2022/04/01 03:01:33;;;;;;;7.00;3.33;;;;;;;3.08;40.73;100007.97;4990401;28;20293;-54
2022/04/01 03:03:59;;;;;;;4.47;4.07;;;;;;;2.97;40.61;100011.22;4990186;28;20668;-53
2022/04/01 03:06:27;;;;;;;4.20;3.10;;;;;;;3.00;42.73;100021.66;4983999;28;20271;-54
2022/04/01 03:08:53;;;;;;;6.63;3.97;;;;;;;2.87;42.35;100018.81;4983217;28;20240;-53
2022/04/01 03:11:20;;;;;;;6.83;4.10;;;;;;;3.19;41.66;100010.75;4990800;28;20311;-55
2022/04/01 03:13:46;;;;;;;6.17;4.33;;;;;;;2.80;41.91;100024.75;4989651;28;20229;-53
2022/04/01 03:16:13;;;;;;;4.77;3.90;;;;;;;2.58;42.46;100022.59;4988093;28;20728;-55
2022/04/01 03:18:40;;;;;;;4.60;3.83;;;;;;;2.90;42.71;100023.19;4989091;28;20253;-53
2022/04/01 03:21:09;;;;;;;4.13;3.73;;;;;;;3.01;42.03;100023.41;4987204;28;20741;-53
2022/04/01 03:23:38;;;;;;;7.00;3.83;;;;;;;2.84;41.85;100016.22;4987927;28;20275;-53
2022/04/01 03:26:05;;;;;;;6.40;4.23;;;;;;;2.76;41.00;100019.47;4990329;28;20256;-53
2022/04/01 03:28:31;;;;;;;5.00;3.73;;;;;;;3.07;41.72;100018.31;4985808;28;20361;-53
2022/04/01 03:30:57;;;;;;;5.33;4.00;;;;;;;3.04;40.49;100015.69;4987515;28;20257;-53
2022/04/01 03:33:24;;;;;;;5.33;3.93;;;;;;;3.13;42.19;100022.75;4986641;28;20240;-54
2022/04/01 03:35:50;;;;;;;4.20;3.33;;;;;;;2.84;41.68;100017.91;4987636;28;20239;-53
2022/04/01 03:38:17;;;;;;;4.23;3.83;;;;;;;2.92;41.54;100021.53;4985157;28;20245;-53
2022/04/01 03:40:48;;;;;;;5.30;4.40;;;;;;;2.87;41.81;100026.59;4987004;28;20950;-53
2022/04/01 03:43:15;;;;;;;4.97;3.50;;;;;;;2.67;43.43;100020.19;4986393;28;20255;-53
2022/04/01 03:45:46;;;;;;;5.20;4.70;;;;;;;2.82;43.93;100028.25;4986023;28;20245;-53
2022/04/01 03:48:16;;;;;;;7.67;5.47;;;;;;;2.79;42.00;100030.78;4986067;28;20319;-53
2022/04/01 03:50:49;;;;;;;5.13;3.90;;;;;;;2.53;41.90;100021.66;4986662;28;20265;-53
2022/04/01 03:53:17;;;;;;;5.60;3.70;;;;;;;2.86;43.18;100024.88;4981837;28;20237;-53
2022/04/01 03:55:47;;;;;;;7.43;4.53;;;;;;;2.59;41.75;100022.63;4986255;28;20758;-53
2022/04/01 03:58:14;;;;;;;9.10;4.37;;;;;;;2.29;42.29;100017.72;4986105;28;20292;-56
2022/04/01 04:00:41;;;;;;;5.90;3.87;;;;;;;2.47;43.18;100024.97;5007777;23;20272;-61
2022/04/01 04:03:09;;;;;;;6.43;4.20;;;;;;;2.65;42.69;100016.69;4998495;28;20232;-60
2022/04/01 04:05:37;;;;;;;6.97;3.77;;;;;;;2.74;42.01;100019.47;5006432;28;20235;-60
2022/04/01 04:08:04;;;;;;;6.70;4.30;;;;;;;2.98;43.16;100028.53;4996568;28;20323;-61
2022/04/01 04:10:32;;;;;;;7.43;4.00;;;;;;;2.80;41.97;100016.97;4994518;28;20665;-60
2022/04/01 04:13:00;;;;;;;6.90;3.90;;;;;;;2.94;42.63;100021.53;4989446;28;20244;-60
2022/04/01 04:15:27;;;;;;;5.53;4.07;;;;;;;2.71;42.69;100022.00;4987683;28;20237;-61
2022/04/01 04:17:59;;;;;;;5.00;4.17;;;;;;;2.73;42.76;100028.06;4988874;28;20712;-60
2022/04/01 04:20:29;;;;;;;5.60;4.03;;;;;;;2.82;42.06;100024.78;4987929;28;20240;-60
2022/04/01 04:23:02;;;;;;;4.77;3.40;;;;;;;2.59;42.25;100027.78;4995687;28;20299;-62
2022/04/01 04:25:38;;;;;;;18.37;4.27;;;;;;;2.82;42.52;100029.97;4993262;28;20322;-60
2022/04/01 04:28:10;;;;;;;5.63;4.30;;;;;;;3.12;42.38;100037.41;4996018;28;20232;-61
2022/04/01 04:30:39;;;;;;;4.30;3.73;;;;;;;3.23;42.86;100035.91;4990309;28;20240;-60
2022/04/01 04:33:08;;;;;;;5.97;3.47;;;;;;;3.24;43.19;100039.38;4987508;28;20233;-60
2022/04/01 04:35:37;;;;;;;4.43;3.33;;;;;;;3.13;41.62;100039.19;4982251;28;20291;-61
2022/04/01 04:38:04;;;;;;;7.30;3.43;;;;;;;3.10;42.05;100039.13;4986977;28;20288;-61
2022/04/01 04:40:31;;;;;;;5.53;4.60;;;;;;;2.97;42.96;100030.25;4990760;28;20249;-61
2022/04/01 04:42:58;;;;;;;5.83;3.90;;;;;;;2.62;42.90;100039.94;4990949;28;20715;-61
2022/04/01 04:45:27;;;;;;;5.67;3.83;;;;;;;2.69;44.07;100046.13;4985280;28;20233;-60
2022/04/01 04:47:54;;;;;;;5.37;4.30;;;;;;;2.45;44.20;100049.09;4992775;28;20256;-60
2022/04/01 04:50:21;;;;;;;10.20;4.07;;;;;;;2.51;43.99;100046.63;4986978;28;20711;-60
2022/04/01 04:52:49;;;;;;;5.73;3.63;;;;;;;2.57;43.51;100046.78;4988278;28;20695;-62
2022/04/01 04:55:17;;;;;;;11.63;4.53;;;;;;;2.89;44.22;100044.78;4990544;28;20237;-62
2022/04/01 04:57:48;;;;;;;7.97;4.43;;;;;;;2.79;43.20;100053.25;4987179;28;20656;-61
2022/04/01 05:00:19;;;;;;;10.80;4.50;;;;;;;2.98;43.29;100052.72;4991402;28;20239;-61
2022/04/01 05:02:59;;;;;;;7.47;4.67;;;;;;;2.51;43.41;100063.06;4962855;28;20631;-61
2022/04/01 05:05:28;;;;;;;9.57;4.80;;;;;;;2.69;44.83;100051.31;4991934;28;20287;-61
2022/04/01 05:08:07;;;;;;;6.57;4.63;;;;;;;2.47;44.40;100052.59;4983424;28;20229;-62
2022/04/01 05:10:39;;;;;;;8.17;4.20;;;;;;;2.25;44.42;100065.09;4976518;28;20237;-60
2022/04/01 05:13:11;;;;;;;4.33;3.73;;;;;;;2.32;45.53;100067.00;4969686;28;20296;-61
2022/04/01 05:15:39;;;;;;;10.83;4.10;;;;;;;2.46;44.85;100054.31;4969692;28;20241;-61
2022/04/01 05:18:12;;;;;;;4.40;3.83;;;;;;;2.81;44.11;100057.63;4979927;28;20230;-61
2022/04/01 05:20:40;;;;;;;6.23;4.03;;;;;;;2.84;44.23;100057.69;4965372;28;20240;-62
2022/04/01 05:23:13;;;;;;;6.63;3.30;;;;;;;2.92;43.23;100060.41;4982577;28;20746;-61
2022/04/01 05:25:44;;;;;;;6.73;3.37;;;;;;;2.32;45.27;100055.75;4983888;28;20344;-61
2022/04/01 05:28:21;;;;;;;6.70;3.93;;;;;;;2.57;44.37;100070.09;4994570;28;20236;-60
2022/04/01 05:30:51;;;;;;;4.90;3.57;;;;;;;2.52;45.43;100079.47;4988094;28;20383;-61
2022/04/01 05:33:19;;;;;;;9.97;4.33;;;;;;;2.89;44.29;100085.41;4989432;28;20271;-61
2022/04/01 05:35:51;;;;;;;4.77;3.30;;;;;;;3.04;46.08;100076.19;4983549;28;20290;-60
2022/04/01 05:38:19;;;;;;;10.77;4.57;;;;;;;2.71;45.47;100089.38;4985609;28;20682;-60
2022/04/01 05:40:46;;;;;;;7.33;3.83;;;;;;;2.68;45.15;100076.34;4983139;28;20253;-60
2022/04/01 05:43:14;;;;;;;7.13;3.63;;;;;;;2.12;45.73;100100.19;4973396;28;20249;-60
2022/04/01 05:45:42;;;;;;;8.77;3.97;;;;;;;2.43;45.48;100094.84;4964200;28;20650;-60
2022/04/01 05:48:11;;;;;;;3.80;3.13;;;;;;;2.48;45.57;100086.31;4965968;28;20237;-61
2022/04/01 05:50:39;;;;;;;5.37;3.60;;;;;;;2.39;46.66;100104.25;4964735;28;20798;-60
2022/04/01 05:53:06;;;;;;;5.23;3.53;;;;;;;2.87;45.75;100099.19;4956647;28;20234;-61
2022/04/01 05:55:34;;;;;;;5.03;3.37;;;;;;;2.45;45.81;100106.09;4955609;28;20243;-61
2022/04/01 05:58:04;;;;;;;5.50;3.73;;;;;;;2.85;44.90;100106.09;4988735;28;20228;-61
2022/04/01 06:00:32;;;;;;;3.73;3.43;;;;;;;2.93;46.15;100107.94;4993850;28;20236;-60
2022/04/01 06:03:24;;;;;;;13.70;3.30;;;;;;;2.76;46.07;100103.28;4993925;28;20233;-61
2022/04/01 06:05:55;;;;;;;5.33;3.20;;;;;;;2.62;44.95;100102.13;4978947;28;20304;-61
2022/04/01 06:08:28;;;;;;;5.33;3.33;;;;;;;2.60;46.30;100107.31;4969525;28;20645;-62
2022/04/01 06:11:00;;;;;;;4.70;3.17;;;;;;;2.72;45.85;100110.97;4960160;28;20229;-61
2022/04/01 06:13:38;;;;;;;7.77;3.70;;;;;;;2.82;45.84;100105.16;4969514;28;20247;-61
2022/04/01 06:16:16;;;;;;;4.20;3.27;;;;;;;3.04;44.80;100112.50;4954850;28;20311;-60
2022/04/01 06:18:44;;;;;;;6.77;3.33;;;;;;;2.81;45.91;100118.97;4982910;28;20240;-60
2022/04/01 06:21:16;;;;;;;3.10;2.50;;;;;;;2.91;45.26;100127.78;4989202;28;20276;-61
2022/04/01 06:24:00;;;;;;;4.47;2.83;;;;;;;3.05;45.68;100127.22;4978438;28;20802;-60
2022/04/01 06:26:28;;;;;;;3.13;2.87;;;;;;;2.78;46.21;100129.25;4985410;28;20229;-61
2022/04/01 06:29:02;;;;;;;3.10;2.83;;;;;;;2.87;46.42;100130.31;4984060;28;20849;-61
2022/04/01 06:31:31;;;;;;;6.10;3.03;;;;;;;2.74;45.81;100128.31;4985014;28;20237;-60
2022/04/01 06:34:03;;;;;;;3.97;3.00;;;;;;;3.04;45.41;100125.47;4984637;28;20832;-59
2022/04/01 06:36:36;;;;;;;4.77;3.30;;;;;;;2.72;45.66;100119.63;4963305;28;20331;-60
2022/04/01 06:39:05;;;;;;;4.00;2.77;;;;;;;2.82;44.68;100129.34;4962542;28;20253;-59
2022/04/01 06:41:36;;;;;;;3.97;3.37;;;;;;;3.17;45.32;100134.34;4985340;28;20232;-62
2022/04/01 06:44:02;;;;;;;7.23;3.23;;;;;;;3.27;45.89;100123.31;4977519;28;20299;-61
2022/04/01 06:46:30;;;;;;;5.20;3.40;;;;;;;3.55;44.98;100129.00;4985266;28;20236;-61
2022/04/01 06:48:57;;;;;;;5.77;3.60;;;;;;;3.48;43.98;100127.16;4957651;28;20246;-60
2022/04/01 06:51:23;;;;;;;6.87;3.83;;;;;;;3.42;44.13;100124.44;4979261;28;20743;-60
2022/04/01 06:53:51;;;;;;;4.80;3.10;;;;;;;3.54;43.62;100133.28;4965513;28;20245;-61
2022/04/01 06:56:18;;;;;;;4.60;3.27;;;;;;;3.17;44.31;100131.75;4957956;28;20331;-65
2022/04/01 06:58:45;;;;;;;3.23;2.67;;;;;;;3.39;45.50;100129.56;4970287;28;20261;-60
2022/04/01 07:01:12;;;;;;;5.63;3.67;;;;;;;3.49;44.68;100128.88;4973486;28;20238;-61
2022/04/01 07:03:39;;;;;;;4.90;3.07;;;;;;;3.58;43.55;100123.88;4989495;28;20242;-62
2022/04/01 07:06:06;;;;;;;5.20;2.83;;;;;;;3.20;44.42;100128.38;4979255;28;20850;-65
2022/04/01 07:08:33;;;;;;;7.17;2.90;;;;;;;3.72;43.08;100135.38;5004365;28;20737;-65
2022/04/01 07:11:01;;;;;;;4.70;3.27;;;;;;;3.56;44.01;100134.22;5002758;28;20273;-62
2022/04/01 07:13:27;;;;;;;2.63;2.37;;;;;;;3.23;43.51;100128.38;4975018;28;20234;-63
2022/04/01 07:15:54;;;;;;;8.73;3.00;;;;;;;3.29;43.81;100126.78;4969903;28;20296;-62
2022/04/01 07:18:21;;;;;;;2.50;2.30;;;;;;;3.30;43.16;100131.16;4966948;28;20234;-62
2022/04/01 07:20:48;;;;;;;9.23;2.70;;;;;;;3.45;42.67;100132.28;4990493;28;20639;-63
2022/04/01 07:23:14;;;;;;;6.70;3.10;;;;;;;3.70;43.90;100138.78;5005381;28;20286;-63
2022/04/01 07:25:41;;;;;;;6.80;2.83;;;;;;;3.82;43.83;100125.97;4968551;28;20242;-64
2022/04/01 07:28:09;;;;;;;3.97;2.50;;;;;;;3.85;43.18;100135.56;4969838;28;20230;-62
2022/04/01 07:30:36;;;;;;;7.70;3.40;;;;;;;3.96;43.15;100123.59;4968019;28;20273;-63
2022/04/01 07:33:03;;;;;;;4.63;3.00;;;;;;;3.94;42.54;100131.38;4982903;28;20288;-64
2022/04/01 07:35:30;;;;;;;5.13;4.00;;;;;;;4.04;41.96;100120.28;4980050;28;20245;-61
2022/04/01 07:37:57;;;;;;;4.30;2.63;;;;;;;3.97;42.91;100130.56;4978068;28;20328;-63
2022/04/01 07:40:24;;;;;;;4.20;2.50;;;;;;;3.90;42.51;100139.13;4986708;28;20312;-62
2022/04/01 07:42:51;;;;;;;4.40;2.90;;;;;;;3.89;41.79;100120.03;4980128;28;20228;-64
2022/04/01 07:45:19;;;;;;;4.50;2.50;;;;;;;4.27;41.97;100128.41;4985058;28;20303;-68
2022/04/01 07:47:45;;;;;;;5.50;2.77;;;;;;;4.06;41.21;100135.88;4964347;28;20257;-68
2022/04/01 07:50:13;;;;;;;3.07;2.10;;;;;;;4.18;42.10;100138.69;4969716;28;20234;-65
2022/04/01 07:52:42;;;;;;;7.53;3.63;;;;;;;4.17;40.26;100141.25;4964954;28;20268;-67
2022/04/01 07:55:16;;;;;;;10.07;2.57;;;;;;;3.99;41.25;100142.72;4993105;28;20604;-69
2022/04/01 07:57:43;;;;;;;4.53;2.70;;;;;;;3.93;40.97;100137.44;4990541;28;20241;-70
2022/04/01 08:00:14;;;;;;;7.73;2.90;;;;;;;4.13;40.94;100147.25;4980297;28;20232;-69
2022/04/01 08:02:41;;;;;;;2.87;2.43;;;;;;;4.15;41.42;100151.63;4977206;28;20252;-68
2022/04/01 08:05:08;;;;;;;4.63;2.30;;;;;;;4.31;40.54;100158.78;4986094;28;20229;-70
2022/04/01 08:07:34;;;;;;;3.03;2.20;;;;;;;4.17;40.20;100147.31;4971797;28;20277;-69
2022/04/01 08:10:00;;;;;;;3.30;3.00;;;;;;;4.58;40.50;100157.44;4966140;28;20242;-70
2022/04/01 08:12:27;;;;;;;2.53;2.33;;;;;;;4.54;39.57;100155.66;4992958;28;20241;-68
2022/04/01 08:14:53;;;;;;;3.27;2.60;;;;;;;4.35;38.55;100159.72;4978001;28;20659;-67
2022/04/01 08:17:20;;;;;;;4.30;2.43;;;;;;;4.66;39.69;100155.81;4965959;28;20328;-68
2022/04/01 08:19:49;;;;;;;3.93;2.80;;;;;;;4.71;38.35;100166.31;4971410;28;20270;-67
2022/04/01 08:22:18;;;;;;;3.90;2.60;;;;;;;4.92;39.04;100163.13;4963939;28;20587;-68
2022/04/01 08:24:44;;;;;;;3.90;2.70;;;;;;;4.58;38.13;100161.78;4963640;28;20238;-63
2022/04/01 08:27:11;;;;;;;2.50;2.03;;;;;;;4.72;38.03;100181.03;4966500;28;20239;-63
2022/04/01 08:29:38;;;;;;;3.37;1.90;;;;;;;4.85;37.45;100166.50;4970477;28;20322;-66
2022/04/01 08:32:06;;;;;;;10.03;2.43;;;;;;;4.87;36.84;100185.56;4969419;28;20235;-61
2022/04/01 08:34:33;;;;;;;4.00;2.53;;;;;;;5.01;37.19;100173.59;4966408;28;20740;-61
2022/04/01 08:37:02;;;;;;;2.83;2.47;;;;;;;4.92;37.46;100173.50;4974928;28;20613;-63
2022/04/01 08:39:29;;;;;;;6.13;3.00;;;;;;;4.84;37.03;100175.13;4972703;28;20249;-67
2022/04/01 08:41:57;;;;;;;4.07;2.23;;;;;;;4.72;37.01;100176.72;4962048;28;20289;-70
2022/04/01 08:44:23;;;;;;;10.90;2.00;;;;;;;4.85;36.69;100189.91;4961049;28;20718;-68
2022/04/01 08:46:50;;;;;;;5.43;2.47;;;;;;;4.90;36.62;100181.28;4961850;28;20262;-61
2022/04/01 08:49:16;;;;;;;5.63;2.33;;;;;;;4.97;36.70;100177.91;4966770;28;20263;-63
2022/04/01 08:51:43;;;;;;;3.93;1.97;;;;;;;5.08;36.68;100185.84;4980224;28;20300;-62
2022/04/01 08:54:11;;;;;;;4.37;2.60;;;;;;;5.04;35.81;100189.25;4971282;28;20288;-61
2022/04/01 08:56:37;;;;;;;6.27;2.90;;;;;;;5.31;36.06;100193.06;4965640;28;20325;-60
2022/04/01 08:59:04;;;;;;;5.33;2.60;;;;;;;5.20;35.48;100203.34;4965566;28;20234;-62
2022/04/01 09:01:40;;;;;;;4.63;2.20;;;;;;;5.45;35.65;100192.34;4964569;28;20748;-65
2022/04/01 09:04:17;;;;;;;2.43;2.17;;;;;;;5.60;34.57;100191.63;4963028;28;20241;-60
2022/04/01 09:06:43;;;;;;;4.27;2.67;;;;;;;5.52;34.39;100202.84;4964969;28;20245;-62
2022/04/01 09:09:25;;;;;;;5.93;2.40;;;;;;;5.66;33.88;100183.91;4966178;28;20281;-60
2022/04/01 09:12:05;;;;;;;4.10;2.17;;;;;;;5.62;32.76;100178.66;4980989;28;20259;-62
2022/04/01 09:14:32;;;;;;;2.83;2.33;;;;;;;5.71;34.12;100194.34;4979079;28;20222;-61
2022/04/01 09:16:59;;;;;;;3.63;2.40;;;;;;;5.64;33.17;100193.41;4962213;28;20843;-58
2022/04/01 09:19:29;;;;;;;3.73;2.10;;;;;;;5.78;32.15;100187.47;4964235;28;20239;-59
2022/04/01 09:21:56;;;;;;;3.03;2.40;;;;;;;5.59;31.80;100200.31;4959807;28;20262;-58
2022/04/01 09:24:24;;;;;;;6.30;2.70;;;;;;;5.77;31.70;100180.53;4969443;28;20416;-61
2022/04/01 09:26:55;;;;;;;5.33;3.63;;;;;;;5.73;31.28;100193.53;4980245;28;20250;-61
2022/04/01 09:29:22;;;;;;;2.40;2.20;;;;;;;5.66;31.66;100196.06;4961186;28;20309;-62
2022/04/01 09:31:52;;;;;;;4.80;2.70;;;;;;;5.62;31.88;100199.50;4963689;28;20231;-66
2022/04/01 09:34:18;;;;;;;4.33;2.30;;;;;;;5.66;32.07;100196.06;4965987;28;20250;-61
2022/04/01 09:36:45;;;;;;;3.37;2.30;;;;;;;5.65;32.48;100203.00;4965849;28;20242;-65
2022/04/01 09:39:13;;;;;;;3.10;2.33;;;;;;;5.86;33.21;100211.84;4972042;28;20239;-60
2022/04/01 09:41:43;;;;;;;4.13;2.00;;;;;;;5.80;32.27;100209.22;4995477;28;20258;-65
2022/04/01 09:44:12;;;;;;;3.17;2.07;;;;;;;5.92;32.86;100217.13;4967077;28;20227;-65
2022/04/01 09:46:43;;;;;;;7.10;2.33;;;;;;;5.80;32.58;100224.84;4959517;28;20230;-58
2022/04/01 09:49:10;;;;;;;3.23;2.27;;;;;;;5.90;32.33;100213.66;4970253;28;20313;-59
2022/04/01 09:51:41;;;;;;;5.50;2.40;;;;;;;5.95;31.60;100214.59;4962556;28;20732;-57
2022/04/01 09:54:08;;;;;;;5.60;2.77;;;;;;;5.72;31.84;100210.00;4965898;28;20234;-58
2022/04/01 09:56:46;;;;;;;5.60;2.27;;;;;;;5.65;32.72;100204.69;4961895;28;20297;-60
2022/04/01 09:59:15;;;;;;;3.03;2.20;;;;;;;5.88;32.07;100215.34;4957389;28;20312;-61
2022/04/01 10:01:44;;;;;;;5.65;3.05;;;;;;;5.99;31.89;100221.56;4959704;28;20486;-61
2022/04/01 10:04:12;;;;;;;3.13;2.80;;;;;;;6.19;31.61;100213.94;4964094;28;20226;-60
2022/04/01 10:06:39;;;;;;;13.17;2.67;;;;;;;6.24;32.26;100217.44;4959241;28;20365;-60
2022/04/01 10:09:08;;;;;;;6.33;2.40;;;;;;;6.20;32.25;100211.34;4963640;28;20235;-60
2022/04/01 10:11:36;;;;;;;5.27;2.80;;;;;;;6.05;32.04;100212.94;4960771;28;20231;-60
2022/04/01 10:14:07;;;;;;;3.10;2.80;;;;;;;6.10;31.76;100213.84;4964804;28;20234;-60
2022/04/01 10:16:35;;;;;;;6.10;3.30;;;;;;;6.21;31.85;100227.84;4953733;28;20672;-61
2022/04/01 10:19:06;;;;;;;5.63;2.63;;;;;;;6.25;32.31;100220.91;4962231;28;20270;-61
2022/04/01 10:21:34;;;;;;;6.67;2.90;;;;;;;6.28;31.24;100213.13;4959014;28;20475;-62
2022/04/01 10:24:06;;;;;;;4.57;2.93;;;;;;;6.44;30.78;100199.34;4963826;28;20600;-62
2022/04/01 10:26:33;;;;;;;2.73;2.07;;;;;;;6.31;31.68;100203.59;4961035;28;20239;-62
2022/04/01 10:29:00;;;;;;;2.83;2.20;;;;;;;6.22;31.69;100209.63;4967341;28;20234;-62
2022/04/01 10:31:28;;;;;;;4.43;2.73;;;;;;;6.37;31.46;100192.34;4960826;28;20234;-59
2022/04/01 10:34:21;;;;;;;6.63;3.13;;;;;;;6.51;32.15;100195.06;4964775;28;20222;-59
2022/04/01 10:36:54;;;;;;;4.33;1.97;;;;;;;6.36;30.51;100201.03;4955398;28;20257;-63
2022/04/01 10:39:21;;;;;;;5.87;2.63;;;;;;;6.62;31.97;100209.91;4978349;28;20253;-61
2022/04/01 10:42:05;;;;;;;3.33;2.63;;;;;;;6.62;31.80;100207.28;4979871;28;20661;-63
2022/04/01 10:44:45;;;;;;;4.50;2.50;;;;;;;6.82;31.48;100211.78;4968749;28;20226;-59
2022/04/01 10:47:13;;;;;;;4.23;2.77;;;;;;;6.94;29.72;100214.44;4960424;28;20285;-59
2022/04/01 10:52:23;;;;;;;3.50;2.40;;;;;;;7.34;29.34;100209.41;4968396;28;20267;-56
2022/04/01 10:54:51;;;;;;;5.77;2.40;;;;;;;7.10;28.38;100216.28;4963013;28;20653;-57
2022/04/01 10:57:29;;;;;;;2.93;2.63;;;;;;;7.21;29.66;100212.84;4966740;28;20262;-63
2022/04/01 10:59:59;;;;;;;5.53;2.50;;;;;;;7.37;29.07;100202.47;4983458;28;20775;-59
2022/04/01 11:02:27;;;;;;;3.20;2.80;;;;;;;7.60;29.52;100197.28;4967323;28;20697;-61
2022/04/01 11:04:54;;;;;;;5.50;2.30;;;;;;;7.54;29.08;100199.88;4978361;28;20239;-59
2022/04/01 11:07:33;;;;;;;2.47;2.27;;;;;;;7.34;29.17;100209.41;4980157;28;20277;-61
2022/04/01 11:10:00;;;;;;;5.37;3.03;;;;;;;7.13;28.32;100204.97;4974969;28;20586;-62
2022/04/01 11:12:34;;;;;;;3.03;2.07;;;;;;;7.20;28.09;100211.97;4964560;28;20235;-62
2022/04/01 11:15:24;;;;;;;4.00;2.43;;;;;;;7.37;29.61;100214.63;4966594;28;20235;-62
2022/04/01 11:18:05;;;;;;;4.47;2.40;;;;;;;7.43;28.23;100206.81;4980996;28;20249;-60
2022/04/01 11:20:35;;;;;;;4.67;2.07;;;;;;;7.40;28.25;100214.63;4982102;28;20296;-61
2022/04/01 11:23:04;;;;;;;4.63;2.17;;;;;;;7.62;28.13;100213.00;4985322;28;20233;-61
2022/04/01 11:25:51;;;;;;;3.20;2.33;;;;;;;7.60;27.52;100207.75;4968216;28;20243;-61
2022/04/01 11:28:17;;;;;;;2.73;2.10;;;;;;;7.70;29.03;100210.38;4957461;28;20235;-60
2022/04/01 11:30:44;;;;;;;7.13;2.47;;;;;;;7.71;27.50;100205.16;4964833;28;20281;-60
2022/04/01 11:33:14;;;;;;;3.13;2.50;;;;;;;7.60;27.17;100192.06;4967073;28;20235;-59
2022/04/01 11:35:45;;;;;;;6.53;2.47;;;;;;;7.40;27.46;100196.34;4981727;28;20234;-64
2022/04/01 11:38:15;;;;;;;3.97;2.70;;;;;;;7.65;27.14;100200.81;4966400;28;20234;-62
2022/04/01 11:40:43;;;;;;;2.97;2.33;;;;;;;7.59;27.14;100192.94;4968840;28;20714;-62
2022/04/01 11:43:11;;;;;;;5.03;2.73;;;;;;;7.76;28.35;100194.72;4958504;28;20246;-61
2022/04/01 11:45:39;;;;;;;3.10;2.00;;;;;;;7.84;27.74;100193.00;4960085;28;20231;-63
2022/04/01 11:48:15;;;;;;;9.77;2.83;;;;;;;7.88;26.43;100192.13;4971965;28;20768;-67
2022/04/01 11:50:43;;;;;;;3.17;2.10;;;;;;;7.95;28.68;100201.72;4962198;28;20234;-70